sensor_id;sensor_type;location;lat;lon;timestamp;temperature;humidity
71649;SHT31;70112;45.624;11.760;2023-07-13T00:01:28;22.87;73.73
71649;SHT31;70112;45.624;11.760;2023-07-13T00:03:54;22.85;73.77
71649;SHT31;70112;45.624;11.760;2023-07-13T00:06:21;22.84;74.00
71649;SHT31;70112;45.624;11.760;2023-07-13T00:08:47;22.87;73.95
71649;SHT31;70112;45.624;11.760;2023-07-13T00:11:14;22.88;73.93
71649;SHT31;70112;45.624;11.760;2023-07-13T00:13:41;22.91;74.04
71649;SHT31;70112;45.624;11.760;2023-07-13T00:16:07;22.93;74.11
71649;SHT31;70112;45.624;11.760;2023-07-13T00:18:35;22.96;74.13
71649;SHT31;70112;45.624;11.760;2023-07-13T00:21:02;23.01;74.22
71649;SHT31;70112;45.624;11.760;2023-07-13T00:23:32;23.05;74.16
71649;SHT31;70112;45.624;11.760;2023-07-13T00:26:01;23.09;74.02
71649;SHT31;70112;45.624;11.760;2023-07-13T00:28:29;23.14;73.82
71649;SHT31;70112;45.624;11.760;2023-07-13T00:30:55;23.12;73.80
71649;SHT31;70112;45.624;11.760;2023-07-13T00:33:20;23.06;73.72
71649;SHT31;70112;45.624;11.760;2023-07-13T00:35:48;22.96;74.11
71649;SHT31;70112;45.624;11.760;2023-07-13T00:38:14;22.69;75.13
71649;SHT31;70112;45.624;11.760;2023-07-13T00:40:40;22.39;75.90
71649;SHT31;70112;45.624;11.760;2023-07-13T00:43:16;22.25;76.17
71649;SHT31;70112;45.624;11.760;2023-07-13T00:48:11;22.23;76.08
71649;SHT31;70112;45.624;11.760;2023-07-13T00:50:41;22.23;76.03
71649;SHT31;70112;45.624;11.760;2023-07-13T00:53:08;22.20;76.06
71649;SHT31;70112;45.624;11.760;2023-07-13T00:55:34;22.17;76.13
71649;SHT31;70112;45.624;11.760;2023-07-13T00:58:01;22.12;76.16
71649;SHT31;70112;45.624;11.760;2023-07-13T01:00:29;22.06;76.44
71649;SHT31;70112;45.624;11.760;2023-07-13T01:02:55;21.98;76.54
71649;SHT31;70112;45.624;11.760;2023-07-13T01:05:22;21.85;76.73
71649;SHT31;70112;45.624;11.760;2023-07-13T01:07:50;21.76;76.91
71649;SHT31;70112;45.624;11.760;2023-07-13T01:10:18;21.70;77.30
71649;SHT31;70112;45.624;11.760;2023-07-13T01:12:47;21.61;77.49
71649;SHT31;70112;45.624;11.760;2023-07-13T01:18:48;21.50;77.71
71649;SHT31;70112;45.624;11.760;2023-07-13T01:21:01;21.55;78.06
71649;SHT31;70112;45.624;11.760;2023-07-13T01:23:29;21.59;78.16
71649;SHT31;70112;45.624;11.760;2023-07-13T01:25:57;21.64;78.21
71649;SHT31;70112;45.624;11.760;2023-07-13T01:28:25;21.70;78.29
71649;SHT31;70112;45.624;11.760;2023-07-13T01:30:53;21.78;78.19
71649;SHT31;70112;45.624;11.760;2023-07-13T01:33:21;21.82;78.13
71649;SHT31;70112;45.624;11.760;2023-07-13T01:35:47;21.89;78.16
71649;SHT31;70112;45.624;11.760;2023-07-13T01:38:18;21.95;78.23
71649;SHT31;70112;45.624;11.760;2023-07-13T01:40:47;22.02;78.18
71649;SHT31;70112;45.624;11.760;2023-07-13T01:43:13;22.08;78.09
71649;SHT31;70112;45.624;11.760;2023-07-13T01:45:39;22.13;78.13
71649;SHT31;70112;45.624;11.760;2023-07-13T01:48:05;22.19;78.19
71649;SHT31;70112;45.624;11.760;2023-07-13T01:50:33;22.23;78.14
71649;SHT31;70112;45.624;11.760;2023-07-13T01:52:59;22.28;78.09
71649;SHT31;70112;45.624;11.760;2023-07-13T01:55:25;22.33;78.06
71649;SHT31;70112;45.624;11.760;2023-07-13T01:57:50;22.38;78.03
71649;SHT31;70112;45.624;11.760;2023-07-13T02:00:16;22.42;77.79
71649;SHT31;70112;45.624;11.760;2023-07-13T02:02:42;22.45;77.73
71649;SHT31;70112;45.624;11.760;2023-07-13T02:05:08;22.48;77.59
71649;SHT31;70112;45.624;11.760;2023-07-13T02:07:33;22.50;77.51
71649;SHT31;70112;45.624;11.760;2023-07-13T02:09:59;22.53;77.34
71649;SHT31;70112;45.624;11.760;2023-07-13T02:12:24;22.55;77.27
71649;SHT31;70112;45.624;11.760;2023-07-13T02:14:50;22.55;77.17
71649;SHT31;70112;45.624;11.760;2023-07-13T02:17:15;22.52;77.07
71649;SHT31;70112;45.624;11.760;2023-07-13T02:19:41;22.51;77.06
71649;SHT31;70112;45.624;11.760;2023-07-13T02:22:07;22.53;77.08
71649;SHT31;70112;45.624;11.760;2023-07-13T02:24:32;22.51;76.99
71649;SHT31;70112;45.624;11.760;2023-07-13T02:26:58;22.50;76.88
71649;SHT31;70112;45.624;11.760;2023-07-13T02:29:23;22.49;76.93
71649;SHT31;70112;45.624;11.760;2023-07-13T02:31:49;22.50;76.91
71649;SHT31;70112;45.624;11.760;2023-07-13T02:34:14;22.51;76.87
71649;SHT31;70112;45.624;11.760;2023-07-13T02:36:40;22.52;76.87
71649;SHT31;70112;45.624;11.760;2023-07-13T02:39:06;22.51;76.94
71649;SHT31;70112;45.624;11.760;2023-07-13T02:41:32;22.51;76.96
71649;SHT31;70112;45.624;11.760;2023-07-13T02:43:58;22.51;76.94
71649;SHT31;70112;45.624;11.760;2023-07-13T02:46:32;22.51;76.91
71649;SHT31;70112;45.624;11.760;2023-07-13T02:49:00;22.49;76.86
71649;SHT31;70112;45.624;11.760;2023-07-13T02:51:26;22.47;76.79
71649;SHT31;70112;45.624;11.760;2023-07-13T02:53:52;22.43;76.87
71649;SHT31;70112;45.624;11.760;2023-07-13T02:56:21;22.40;76.92
71649;SHT31;70112;45.624;11.760;2023-07-13T02:58:51;22.36;76.96
71649;SHT31;70112;45.624;11.760;2023-07-13T03:01:17;22.33;76.89
71649;SHT31;70112;45.624;11.760;2023-07-13T03:03:47;22.32;76.95
71649;SHT31;70112;45.624;11.760;2023-07-13T03:06:14;22.32;76.99
71649;SHT31;70112;45.624;11.760;2023-07-13T03:08:41;22.33;76.99
71649;SHT31;70112;45.624;11.760;2023-07-13T03:11:09;22.32;77.06
71649;SHT31;70112;45.624;11.760;2023-07-13T03:13:40;22.33;77.11
71649;SHT31;70112;45.624;11.760;2023-07-13T03:16:07;22.34;77.14
71649;SHT31;70112;45.624;11.760;2023-07-13T03:18:35;22.33;77.14
71649;SHT31;70112;45.624;11.760;2023-07-13T03:21:02;22.33;77.03
71649;SHT31;70112;45.624;11.760;2023-07-13T03:23:29;22.32;77.17
71649;SHT31;70112;45.624;11.760;2023-07-13T03:26:08;22.32;77.22
71649;SHT31;70112;45.624;11.760;2023-07-13T03:28:41;22.33;77.32
71649;SHT31;70112;45.624;11.760;2023-07-13T03:31:08;22.34;77.37
71649;SHT31;70112;45.624;11.760;2023-07-13T03:33:38;22.36;77.47
71649;SHT31;70112;45.624;11.760;2023-07-13T03:36:04;22.40;77.51
71649;SHT31;70112;45.624;11.760;2023-07-13T03:38:31;22.44;77.50
71649;SHT31;70112;45.624;11.760;2023-07-13T03:40:57;22.45;77.40
71649;SHT31;70112;45.624;11.760;2023-07-13T03:43:23;22.46;77.48
71649;SHT31;70112;45.624;11.760;2023-07-13T03:45:48;22.46;77.42
71649;SHT31;70112;45.624;11.760;2023-07-13T03:48:14;22.47;77.53
71649;SHT31;70112;45.624;11.760;2023-07-13T03:50:40;22.49;77.48
71649;SHT31;70112;45.624;11.760;2023-07-13T03:53:05;22.49;77.42
71649;SHT31;70112;45.624;11.760;2023-07-13T03:55:31;22.51;77.41
71649;SHT31;70112;45.624;11.760;2023-07-13T03:57:58;22.51;77.38
71649;SHT31;70112;45.624;11.760;2023-07-13T04:00:46;22.51;77.44
71649;SHT31;70112;45.624;11.760;2023-07-13T04:03:12;22.54;77.42
71649;SHT31;70112;45.624;11.760;2023-07-13T04:05:37;22.56;77.39
71649;SHT31;70112;45.624;11.760;2023-07-13T04:08:05;22.56;77.39
71649;SHT31;70112;45.624;11.760;2023-07-13T04:10:31;22.57;77.38
71649;SHT31;70112;45.624;11.760;2023-07-13T04:12:57;22.60;77.41
71649;SHT31;70112;45.624;11.760;2023-07-13T04:15:22;22.63;77.43
71649;SHT31;70112;45.624;11.760;2023-07-13T04:17:47;22.65;77.40
71649;SHT31;70112;45.624;11.760;2023-07-13T04:20:13;22.67;77.37
71649;SHT31;70112;45.624;11.760;2023-07-13T04:22:38;22.69;77.37
71649;SHT31;70112;45.624;11.760;2023-07-13T04:25:04;22.71;77.34
71649;SHT31;70112;45.624;11.760;2023-07-13T04:27:30;22.74;77.37
71649;SHT31;70112;45.624;11.760;2023-07-13T04:29:56;22.73;77.36
71649;SHT31;70112;45.624;11.760;2023-07-13T04:32:21;22.70;77.39
71649;SHT31;70112;45.624;11.760;2023-07-13T04:34:46;22.71;77.42
71649;SHT31;70112;45.624;11.760;2023-07-13T04:37:12;22.71;77.55
71649;SHT31;70112;45.624;11.760;2023-07-13T04:39:37;22.71;77.59
71649;SHT31;70112;45.624;11.760;2023-07-13T04:42:03;22.74;77.56
71649;SHT31;70112;45.624;11.760;2023-07-13T04:44:29;22.77;77.52
71649;SHT31;70112;45.624;11.760;2023-07-13T04:46:55;22.80;77.57
71649;SHT31;70112;45.624;11.760;2023-07-13T04:49:21;22.81;77.57
71649;SHT31;70112;45.624;11.760;2023-07-13T04:51:46;22.85;77.57
71649;SHT31;70112;45.624;11.760;2023-07-13T04:54:12;22.86;77.51
71649;SHT31;70112;45.624;11.760;2023-07-13T04:56:37;22.87;77.53
71649;SHT31;70112;45.624;11.760;2023-07-13T04:59:03;22.87;77.60
71649;SHT31;70112;45.624;11.760;2023-07-13T05:01:28;22.86;77.59
71649;SHT31;70112;45.624;11.760;2023-07-13T05:03:54;22.84;77.56
71649;SHT31;70112;45.624;11.760;2023-07-13T05:06:22;22.85;77.52
71649;SHT31;70112;45.624;11.760;2023-07-13T05:08:48;22.89;77.46
71649;SHT31;70112;45.624;11.760;2023-07-13T05:11:13;22.91;77.41
71649;SHT31;70112;45.624;11.760;2023-07-13T05:13:39;22.94;77.40
71649;SHT31;70112;45.624;11.760;2023-07-13T05:16:05;22.98;77.43
71649;SHT31;70112;45.624;11.760;2023-07-13T05:18:32;23.02;77.46
71649;SHT31;70112;45.624;11.760;2023-07-13T05:21:03;23.06;77.58
71649;SHT31;70112;45.624;11.760;2023-07-13T05:23:34;23.14;77.50
71649;SHT31;70112;45.624;11.760;2023-07-13T05:26:01;23.26;77.36
71649;SHT31;70112;45.624;11.760;2023-07-13T05:28:28;23.40;77.20
71649;SHT31;70112;45.624;11.760;2023-07-13T05:30:56;23.54;76.92
71649;SHT31;70112;45.624;11.760;2023-07-13T05:33:22;23.66;76.70
71649;SHT31;70112;45.624;11.760;2023-07-13T05:35:49;23.76;76.36
71649;SHT31;70112;45.624;11.760;2023-07-13T05:38:14;23.83;76.16
71649;SHT31;70112;45.624;11.760;2023-07-13T05:40:42;23.94;76.10
71649;SHT31;70112;45.624;11.760;2023-07-13T05:43:09;24.02;76.11
71649;SHT31;70112;45.624;11.760;2023-07-13T05:45:35;24.10;76.06
71649;SHT31;70112;45.624;11.760;2023-07-13T05:48:00;24.19;75.99
71649;SHT31;70112;45.624;11.760;2023-07-13T05:50:26;24.27;75.87
71649;SHT31;70112;45.624;11.760;2023-07-13T05:52:52;24.38;75.61
71649;SHT31;70112;45.624;11.760;2023-07-13T05:55:18;24.47;75.42
71649;SHT31;70112;45.624;11.760;2023-07-13T05:57:44;24.57;75.20
71649;SHT31;70112;45.624;11.760;2023-07-13T06:00:10;24.64;75.06
71649;SHT31;70112;45.624;11.760;2023-07-13T06:02:36;24.72;74.87
71649;SHT31;70112;45.624;11.760;2023-07-13T06:05:02;24.81;74.76
71649;SHT31;70112;45.624;11.760;2023-07-13T06:07:28;24.89;74.63
71649;SHT31;70112;45.624;11.760;2023-07-13T06:09:53;24.96;74.49
71649;SHT31;70112;45.624;11.760;2023-07-13T06:12:19;25.02;74.36
71649;SHT31;70112;45.624;11.760;2023-07-13T06:14:44;25.10;74.22
71649;SHT31;70112;45.624;11.760;2023-07-13T06:17:10;25.16;74.04
71649;SHT31;70112;45.624;11.760;2023-07-13T06:19:35;25.24;73.90
71649;SHT31;70112;45.624;11.760;2023-07-13T06:22:01;25.31;73.76
71649;SHT31;70112;45.624;11.760;2023-07-13T06:24:26;25.37;73.60
71649;SHT31;70112;45.624;11.760;2023-07-13T06:26:52;25.41;73.51
71649;SHT31;70112;45.624;11.760;2023-07-13T06:29:17;25.45;73.51
71649;SHT31;70112;45.624;11.760;2023-07-13T06:31:43;25.52;73.50
71649;SHT31;70112;45.624;11.760;2023-07-13T06:34:08;25.55;73.51
71649;SHT31;70112;45.624;11.760;2023-07-13T06:36:34;25.65;73.47
71649;SHT31;70112;45.624;11.760;2023-07-13T06:39:01;25.65;73.53
71649;SHT31;70112;45.624;11.760;2023-07-13T06:41:27;25.69;73.36
71649;SHT31;70112;45.624;11.760;2023-07-13T06:43:53;25.72;73.18
71649;SHT31;70112;45.624;11.760;2023-07-13T06:46:22;25.74;72.85
71649;SHT31;70112;45.624;11.760;2023-07-13T06:48:48;25.77;72.64
71649;SHT31;70112;45.624;11.760;2023-07-13T06:51:14;25.80;72.65
71649;SHT31;70112;45.624;11.760;2023-07-13T06:53:40;25.80;72.60
71649;SHT31;70112;45.624;11.760;2023-07-13T06:56:07;25.81;72.48
71649;SHT31;70112;45.624;11.760;2023-07-13T06:58:33;25.81;72.46
71649;SHT31;70112;45.624;11.760;2023-07-13T07:00:59;25.82;72.39
71649;SHT31;70112;45.624;11.760;2023-07-13T07:03:24;25.84;72.52
71649;SHT31;70112;45.624;11.760;2023-07-13T07:05:50;25.89;72.58
71649;SHT31;70112;45.624;11.760;2023-07-13T07:08:16;25.92;72.56
71649;SHT31;70112;45.624;11.760;2023-07-13T07:10:41;25.94;72.52
71649;SHT31;70112;45.624;11.760;2023-07-13T07:13:07;25.99;72.40
71649;SHT31;70112;45.624;11.760;2023-07-13T07:15:34;26.03;72.38
71649;SHT31;70112;45.624;11.760;2023-07-13T07:18:00;26.09;72.39
71649;SHT31;70112;45.624;11.760;2023-07-13T07:20:26;26.13;72.36
71649;SHT31;70112;45.624;11.760;2023-07-13T07:22:52;26.17;72.34
71649;SHT31;70112;45.624;11.760;2023-07-13T07:25:17;26.22;72.32
71649;SHT31;70112;45.624;11.760;2023-07-13T07:27:44;26.26;71.84
71649;SHT31;70112;45.624;11.760;2023-07-13T07:30:10;26.29;71.92
71649;SHT31;70112;45.624;11.760;2023-07-13T07:32:37;26.31;71.79
71649;SHT31;70112;45.624;11.760;2023-07-13T07:35:03;26.34;71.75
71649;SHT31;70112;45.624;11.760;2023-07-13T07:37:29;26.36;71.66
71649;SHT31;70112;45.624;11.760;2023-07-13T07:39:55;26.37;71.34
71649;SHT31;70112;45.624;11.760;2023-07-13T07:42:20;26.31;71.31
71649;SHT31;70112;45.624;11.760;2023-07-13T07:44:46;26.24;71.50
71649;SHT31;70112;45.624;11.760;2023-07-13T07:47:11;26.18;71.66
71649;SHT31;70112;45.624;11.760;2023-07-13T07:49:37;26.14;71.87
71649;SHT31;70112;45.624;11.760;2023-07-13T07:52:03;26.08;71.97
71649;SHT31;70112;45.624;11.760;2023-07-13T07:54:29;26.02;72.02
71649;SHT31;70112;45.624;11.760;2023-07-13T07:56:54;25.98;71.80
71649;SHT31;70112;45.624;11.760;2023-07-13T07:59:20;26.00;71.84
71649;SHT31;70112;45.624;11.760;2023-07-13T08:01:46;26.02;71.78
71649;SHT31;70112;45.624;11.760;2023-07-13T08:04:13;26.04;71.59
71649;SHT31;70112;45.624;11.760;2023-07-13T08:06:38;26.03;71.53
71649;SHT31;70112;45.624;11.760;2023-07-13T08:09:04;25.99;71.40
71649;SHT31;70112;45.624;11.760;2023-07-13T08:11:29;25.97;71.16
71649;SHT31;70112;45.624;11.760;2023-07-13T08:13:55;25.97;71.31
71649;SHT31;70112;45.624;11.760;2023-07-13T08:36:25;26.52;70.36
71649;SHT31;70112;45.624;11.760;2023-07-13T08:38:52;26.49;70.41
71649;SHT31;70112;45.624;11.760;2023-07-13T08:41:17;26.47;70.58
71649;SHT31;70112;45.624;11.760;2023-07-13T08:43:45;26.44;70.61
71649;SHT31;70112;45.624;11.760;2023-07-13T08:48:52;26.32;71.05
71649;SHT31;70112;45.624;11.760;2023-07-13T08:54:07;26.27;70.94
71649;SHT31;70112;45.624;11.760;2023-07-13T08:56:47;26.23;71.17
71649;SHT31;70112;45.624;11.760;2023-07-13T08:59:18;26.19;71.44
71649;SHT31;70112;45.624;11.760;2023-07-13T09:04:45;26.16;71.55
71649;SHT31;70112;45.624;11.760;2023-07-13T09:12:51;26.13;71.48
71649;SHT31;70112;45.624;11.760;2023-07-13T09:17:57;26.06;71.70
71649;SHT31;70112;45.624;11.760;2023-07-13T09:23:20;25.94;72.11
71649;SHT31;70112;45.624;11.760;2023-07-13T09:25:48;25.92;72.15
71649;SHT31;70112;45.624;11.760;2023-07-13T09:28:22;25.90;72.09
71649;SHT31;70112;45.624;11.760;2023-07-13T09:31:00;25.88;71.89
71649;SHT31;70112;45.624;11.760;2023-07-13T09:33:37;25.82;72.06
71649;SHT31;70112;45.624;11.760;2023-07-13T09:36:15;25.78;72.27
71649;SHT31;70112;45.624;11.760;2023-07-13T09:38:49;25.74;72.50
71649;SHT31;70112;45.624;11.760;2023-07-13T09:41:53;25.68;72.58
71649;SHT31;70112;45.624;11.760;2023-07-13T09:47:12;25.58;72.92
71649;SHT31;70112;45.624;11.760;2023-07-13T09:49:43;25.57;73.07
71649;SHT31;70112;45.624;11.760;2023-07-13T09:52:14;25.54;73.22
71649;SHT31;70112;45.624;11.760;2023-07-13T09:54:44;25.52;73.33
71649;SHT31;70112;45.624;11.760;2023-07-13T09:57:17;25.46;73.59
71649;SHT31;70112;45.624;11.760;2023-07-13T09:59:46;25.37;73.88
71649;SHT31;70112;45.624;11.760;2023-07-13T10:05:05;25.32;74.24
71649;SHT31;70112;45.624;11.760;2023-07-13T10:07:41;25.30;74.46
71649;SHT31;70112;45.624;11.760;2023-07-13T10:10:17;25.33;74.68
71649;SHT31;70112;45.624;11.760;2023-07-13T10:12:47;25.36;74.84
71649;SHT31;70112;45.624;11.760;2023-07-13T10:15:15;25.42;74.96
71649;SHT31;70112;45.624;11.760;2023-07-13T10:17:46;25.50;74.89
71649;SHT31;70112;45.624;11.760;2023-07-13T10:20:13;25.60;74.91
71649;SHT31;70112;45.624;11.760;2023-07-13T10:22:44;25.80;74.55
71649;SHT31;70112;45.624;11.760;2023-07-13T10:25:21;26.19;73.78
71649;SHT31;70112;45.624;11.760;2023-07-13T10:27:53;27.14;72.75
71649;SHT31;70112;45.624;11.760;2023-07-13T10:30:27;28.65;70.07
71649;SHT31;70112;45.624;11.760;2023-07-13T10:32:58;30.31;67.09
71649;SHT31;70112;45.624;11.760;2023-07-13T10:35:27;32.02;62.84
71649;SHT31;70112;45.624;11.760;2023-07-13T10:38:02;33.48;58.37
71649;SHT31;70112;45.624;11.760;2023-07-13T10:40:39;35.25;55.14
71649;SHT31;70112;45.624;11.760;2023-07-13T10:43:11;37.23;52.43
71649;SHT31;70112;45.624;11.760;2023-07-13T10:45:51;39.40;49.76
71649;SHT31;70112;45.624;11.760;2023-07-13T10:48:19;41.30;46.53
71649;SHT31;70112;45.624;11.760;2023-07-13T10:50:48;42.95;43.43
71649;SHT31;70112;45.624;11.760;2023-07-13T10:53:19;44.27;39.97
71649;SHT31;70112;45.624;11.760;2023-07-13T10:58:19;45.79;36.25
71649;SHT31;70112;45.624;11.760;2023-07-13T11:00:47;46.58;35.08
71649;SHT31;70112;45.624;11.760;2023-07-13T11:03:28;47.40;33.90
71649;SHT31;70112;45.624;11.760;2023-07-13T11:08:35;48.33;31.10
71649;SHT31;70112;45.624;11.760;2023-07-13T11:14:00;48.55;30.91
71649;SHT31;70112;45.624;11.760;2023-07-13T11:16:50;49.01;29.89
71649;SHT31;70112;45.624;11.760;2023-07-13T11:35:45;40.87;32.97
71649;SHT31;70112;45.624;11.760;2023-07-13T11:38:21;39.84;34.30
71649;SHT31;70112;45.624;11.760;2023-07-13T11:41:19;38.79;35.49
71649;SHT31;70112;45.624;11.760;2023-07-13T11:43:56;37.61;37.11
71649;SHT31;70112;45.624;11.760;2023-07-13T11:46:32;36.65;38.50
71649;SHT31;70112;45.624;11.760;2023-07-13T11:48:58;36.12;38.91
71649;SHT31;70112;45.624;11.760;2023-07-13T11:51:25;35.81;39.24
71649;SHT31;70112;45.624;11.760;2023-07-13T11:53:56;35.41;41.05
71649;SHT31;70112;45.624;11.760;2023-07-13T11:56:27;34.98;41.94
71649;SHT31;70112;45.624;11.760;2023-07-13T11:58:54;34.65;41.66
71649;SHT31;70112;45.624;11.760;2023-07-13T12:01:23;34.36;42.83
71649;SHT31;70112;45.624;11.760;2023-07-13T12:03:57;33.97;43.51
71649;SHT31;70112;45.624;11.760;2023-07-13T12:06:29;33.63;44.36
71649;SHT31;70112;45.624;11.760;2023-07-13T12:09:02;33.36;45.23
71649;SHT31;70112;45.624;11.760;2023-07-13T12:11:39;33.03;45.44
71649;SHT31;70112;45.624;11.760;2023-07-13T12:14:12;32.93;45.44
71649;SHT31;70112;45.624;11.760;2023-07-13T12:16:43;32.96;45.92
71649;SHT31;70112;45.624;11.760;2023-07-13T12:19:21;32.87;46.14
71649;SHT31;70112;45.624;11.760;2023-07-13T12:21:53;32.88;46.25
71649;SHT31;70112;45.624;11.760;2023-07-13T12:24:23;32.74;45.85
71649;SHT31;70112;45.624;11.760;2023-07-13T12:26:50;32.48;46.21
71649;SHT31;70112;45.624;11.760;2023-07-13T12:29:17;32.31;46.74
71649;SHT31;70112;45.624;11.760;2023-07-13T12:31:44;32.18;47.14
71649;SHT31;70112;45.624;11.760;2023-07-13T12:34:13;32.01;47.37
71649;SHT31;70112;45.624;11.760;2023-07-13T12:36:52;31.77;47.60
71649;SHT31;70112;45.624;11.760;2023-07-13T12:39:37;31.58;47.71
71649;SHT31;70112;45.624;11.760;2023-07-13T12:42:20;31.43;48.34
71649;SHT31;70112;45.624;11.760;2023-07-13T12:45:01;31.27;48.33
71649;SHT31;70112;45.624;11.760;2023-07-13T12:47:41;31.10;48.73
71649;SHT31;70112;45.624;11.760;2023-07-13T12:50:18;31.03;49.43
71649;SHT31;70112;45.624;11.760;2023-07-13T12:52:56;30.96;50.40
71649;SHT31;70112;45.624;11.760;2023-07-13T12:55:28;30.90;50.88
71649;SHT31;70112;45.624;11.760;2023-07-13T12:57:59;30.90;51.09
71649;SHT31;70112;45.624;11.760;2023-07-13T13:00:29;30.93;51.37
71649;SHT31;70112;45.624;11.760;2023-07-13T13:02:57;30.89;51.59
71649;SHT31;70112;45.624;11.760;2023-07-13T13:05:28;30.89;51.81
71649;SHT31;70112;45.624;11.760;2023-07-13T13:07:55;30.89;51.46
71649;SHT31;70112;45.624;11.760;2023-07-13T13:10:21;30.81;51.20
71649;SHT31;70112;45.624;11.760;2023-07-13T13:12:47;30.77;51.18
71649;SHT31;70112;45.624;11.760;2023-07-13T13:15:13;30.69;50.71
71649;SHT31;70112;45.624;11.760;2023-07-13T13:17:39;30.62;50.88
71649;SHT31;70112;45.624;11.760;2023-07-13T13:20:18;30.59;50.96
71649;SHT31;70112;45.624;11.760;2023-07-13T13:22:46;30.57;51.45
71649;SHT31;70112;45.624;11.760;2023-07-13T13:25:12;30.60;51.69
71649;SHT31;70112;45.624;11.760;2023-07-13T13:27:40;30.64;52.42
71649;SHT31;70112;45.624;11.760;2023-07-13T13:32:41;30.73;53.31
71649;SHT31;70112;45.624;11.760;2023-07-13T13:35:13;30.73;53.44
71649;SHT31;70112;45.624;11.760;2023-07-13T13:37:40;30.72;53.91
71649;SHT31;70112;45.624;11.760;2023-07-13T13:40:13;30.74;54.32
71649;SHT31;70112;45.624;11.760;2023-07-13T13:42:41;30.76;54.64
71649;SHT31;70112;45.624;11.760;2023-07-13T13:45:08;30.76;54.45
71649;SHT31;70112;45.624;11.760;2023-07-13T13:47:35;30.70;54.69
71649;SHT31;70112;45.624;11.760;2023-07-13T13:50:04;30.59;55.17
71649;SHT31;70112;45.624;11.760;2023-07-13T13:52:43;30.52;55.03
71649;SHT31;70112;45.624;11.760;2023-07-13T13:55:17;30.48;54.66
71649;SHT31;70112;45.624;11.760;2023-07-13T13:57:46;30.42;54.74
71649;SHT31;70112;45.624;11.760;2023-07-13T14:00:13;30.39;55.33
71649;SHT31;70112;45.624;11.760;2023-07-13T14:02:44;30.35;56.12
71649;SHT31;70112;45.624;11.760;2023-07-13T14:05:14;30.33;56.66
71649;SHT31;70112;45.624;11.760;2023-07-13T14:07:47;30.27;57.00
71649;SHT31;70112;45.624;11.760;2023-07-13T14:10:13;30.21;57.35
71649;SHT31;70112;45.624;11.760;2023-07-13T14:12:43;30.17;57.47
71649;SHT31;70112;45.624;11.760;2023-07-13T14:15:17;30.15;57.71
71649;SHT31;70112;45.624;11.760;2023-07-13T14:17:47;30.10;58.43
71649;SHT31;70112;45.624;11.760;2023-07-13T14:20:16;30.06;58.91
71649;SHT31;70112;45.624;11.760;2023-07-13T14:22:43;30.03;58.66
71649;SHT31;70112;45.624;11.760;2023-07-13T14:25:13;29.99;58.62
71649;SHT31;70112;45.624;11.760;2023-07-13T14:27:40;29.90;58.74
71649;SHT31;70112;45.624;11.760;2023-07-13T14:30:17;29.80;57.84
71649;SHT31;70112;45.624;11.760;2023-07-13T14:32:46;29.72;57.04
71649;SHT31;70112;45.624;11.760;2023-07-13T14:35:14;29.66;56.79
71649;SHT31;70112;45.624;11.760;2023-07-13T14:37:42;29.59;56.51
71649;SHT31;70112;45.624;11.760;2023-07-13T14:40:12;29.53;56.53
71649;SHT31;70112;45.624;11.760;2023-07-13T14:42:54;29.45;56.32
71649;SHT31;70112;45.624;11.760;2023-07-13T14:45:20;29.39;56.29
71649;SHT31;70112;45.624;11.760;2023-07-13T14:47:46;29.34;56.61
71649;SHT31;70112;45.624;11.760;2023-07-13T14:50:16;29.28;56.66
71649;SHT31;70112;45.624;11.760;2023-07-13T14:52:46;29.19;55.56
71649;SHT31;70112;45.624;11.760;2023-07-13T14:55:14;29.05;53.80
71649;SHT31;70112;45.624;11.760;2023-07-13T14:57:42;28.89;53.11
71649;SHT31;70112;45.624;11.760;2023-07-13T15:00:21;28.78;53.28
71649;SHT31;70112;45.624;11.760;2023-07-13T15:02:50;28.84;52.97
71649;SHT31;70112;45.624;11.760;2023-07-13T15:05:20;28.85;52.88
71649;SHT31;70112;45.624;11.760;2023-07-13T15:07:49;28.85;52.62
